Archival Weather

Republic

Farmingdale, New York (KFRG)

Report from: Sunday, February 18, 2024 9:53 PM EST
Current time: Monday, June 24, 2024 7:05 AM EDT

Current weather – Weather history – Daily summaries
Weather forecast

Temperature1.7°C (35.1°F)
Wind chill-2.9°C (26.8°F)
Dew point-6.7°C (19.9°F)
Winds 10 kts (5.1 m/s, 11.5 mph) West-Southwest (240°)
Visibility10 mi. (16.1 km)
Clouds Sky clear
Altimeter29.89 in.Hg (1012 mB)
Relative humidity54 %
Density altitude-1,519 ft. (-463 m)
Sea-level pressure101.2 kPa (1012 mB, 29.89 in.Hg)
Remarks Automated weather observing station without precipitation discriminator
Pressure rising more quickly
Flight conditions Visual Meteorological Conditions
Raw dataKFRG 190253Z 24010KT 10SM CLR 02/M07 A2989 RMK AO1 SLP121 T00171067 53022
An error has occurred. This application may no longer respond until reloaded. Reload 🗙